Orlando, Florida
Current Conditions -  °F | °C
As of 9:53 AM on Sunday 21 Dec 2014 (Local Time) from KORL Reporting Station
Clear Clear  
Wind Chill: 21°   Ceiling: Unl
Heat Index: 21°   Visibility: 10mi
Dew Point: 17°   Wind: 3mph
Humidity: 78%   Direction: 160°SSE
Pressure: 30.12"   Gusts: NA
Location:  28.54°N, 81.38°W
Report Text: KORL 211453Z 16003KT 10SM CLR 21/17 A3012 RMK AO2 SLP204 T02110172 53014
Loading
Personal Weather Stations






























Interactive Weather Map New forecast layout! Learn more

10-Day Weather Forecast

Advertisements
Track Severe Weather on mobile